Time;durP1;ratioP1;P1;durP2;ratioP2;P2;SDS_P1;SDS_P2;PMS_P1;PMS_P2;Temp;Humidity;BMP_temperature;BMP_pressure;BME280_temperature;BME280_humidity;BME280_pressure;Samples;Min_cycle;Max_cycle;Signal;HPM_P1;HPM_P2
2023/08/02 00:00:48;;;;;;;4.60;3.13;;;17.30;1.00;;;;;;5041051;28;20667;-76
2023/08/02 00:03:13;;;;;;;6.50;3.10;;;17.20;1.00;;;;;;5033984;28;20442;-77
2023/08/02 00:05:39;;;;;;;7.20;3.10;;;17.30;1.00;;;;;;5042008;28;20180;-76
2023/08/02 00:08:04;;;;;;;4.80;3.23;;;17.20;1.00;;;;;;5043745;28;20695;-76
2023/08/02 00:10:30;;;;;;;5.20;3.33;;;17.20;1.00;;;;;;5045815;28;20185;-77
2023/08/02 00:12:56;;;;;;;10.90;3.43;;;17.20;1.00;;;;;;5037458;28;20185;-75
2023/08/02 00:15:21;;;;;;;7.13;3.43;;;17.20;1.00;;;;;;5033094;28;20178;-76
2023/08/02 00:17:47;;;;;;;6.23;3.03;;;17.10;1.00;;;;;;5029718;28;20204;-74
2023/08/02 00:20:13;;;;;;;7.40;3.70;;;17.10;1.00;;;;;;5030101;28;20196;-75
2023/08/02 00:22:40;;;;;;;6.30;3.00;;;17.00;1.00;;;;;;5029688;28;20253;-72
2023/08/02 00:25:05;;;;;;;6.30;3.40;;;17.10;1.00;;;;;;5028851;28;20431;-73
2023/08/02 00:27:31;;;;;;;3.60;2.80;;;17.10;1.00;;;;;;5029626;28;21005;-74
2023/08/02 00:29:56;;;;;;;4.60;2.90;;;17.10;1.00;;;;;;5028056;28;20178;-75
2023/08/02 00:32:22;;;;;;;7.03;3.07;;;17.10;1.00;;;;;;5033919;28;20540;-75
2023/08/02 00:34:54;;;;;;;5.10;2.90;;;17.00;1.00;;;;;;5031274;28;20186;-75
2023/08/02 00:37:20;;;;;;;4.67;2.80;;;17.10;1.00;;;;;;5029758;28;20192;-75
2023/08/02 00:39:49;;;;;;;5.63;3.50;;;17.10;1.00;;;;;;5029440;28;20551;-76
2023/08/02 00:42:14;;;;;;;5.27;3.33;;;17.00;1.00;;;;;;5029928;28;20184;-75
2023/08/02 00:44:40;;;;;;;9.00;3.13;;;17.00;1.00;;;;;;5029566;28;20425;-74
2023/08/02 00:47:05;;;;;;;7.80;2.90;;;17.00;1.00;;;;;;5031982;28;20667;-75
2023/08/02 01:11:00;;;;;;;7.87;3.03;;;17.10;1.00;;;;;;5042486;28;20473;-77
2023/08/02 01:13:28;;;;;;;6.33;3.40;;;17.10;1.00;;;;;;5048853;28;20437;-75
2023/08/02 01:15:54;;;;;;;7.40;3.63;;;17.10;1.00;;;;;;5046387;28;20426;-74
2023/08/02 01:18:20;;;;;;;5.00;2.93;;;17.00;1.00;;;;;;5042492;28;20721;-74
2023/08/02 01:20:45;;;;;;;6.10;3.50;;;17.70;1.00;;;;;;5037124;28;20664;-74
2023/08/02 01:23:11;;;;;;;6.67;3.40;;;16.90;1.00;;;;;;5034180;28;20424;-75
2023/08/02 01:25:40;;;;;;;7.07;3.40;;;16.90;1.00;;;;;;5045562;28;20189;-75
2023/08/02 01:28:15;;;;;;;6.53;2.90;;;16.80;1.00;;;;;;5040069;28;20181;-74
2023/08/02 01:30:41;;;;;;;8.57;3.23;;;17.00;1.00;;;;;;5047147;28;20902;-74
2023/08/02 01:33:07;;;;;;;5.67;3.27;;;16.70;1.00;;;;;;5036925;28;20412;-74
2023/08/02 01:35:34;;;;;;;8.83;3.00;;;16.70;1.00;;;;;;5044734;28;20925;-74
2023/08/02 01:37:59;;;;;;;10.50;3.70;;;16.70;1.00;;;;;;5035908;28;20424;-74
2023/08/02 01:40:25;;;;;;;7.73;3.40;;;16.70;1.00;;;;;;5027749;28;20470;-75
2023/08/02 01:42:50;;;;;;;6.60;3.57;;;16.60;1.00;;;;;;5031919;28;20261;-75
2023/08/02 01:45:16;;;;;;;4.80;2.77;;;16.60;1.00;;;;;;5031165;28;20264;-72
2023/08/02 01:47:41;;;;;;;5.80;3.00;;;16.60;1.00;;;;;;5028425;28;20198;-74
2023/08/02 01:50:07;;;;;;;6.93;2.90;;;16.60;1.00;;;;;;5029089;28;20616;-74
2023/08/02 01:52:33;;;;;;;6.07;3.20;;;16.60;1.00;;;;;;5029834;28;20185;-74
2023/08/02 01:54:58;;;;;;;5.17;2.97;;;16.60;1.00;;;;;;5028416;28;20191;-74
2023/08/02 01:57:24;;;;;;;4.63;2.80;;;16.60;1.00;;;;;;5029312;28;20197;-76
2023/08/02 01:59:49;;;;;;;5.63;2.97;;;16.50;1.00;;;;;;5028553;28;20703;-74
2023/08/02 02:02:16;;;;;;;5.67;3.03;;;16.50;1.00;;;;;;5028888;28;20170;-75
2023/08/02 02:04:42;;;;;;;4.93;2.70;;;16.50;1.00;;;;;;5028737;28;20166;-73
2023/08/02 02:07:07;;;;;;;3.70;2.70;;;16.40;1.00;;;;;;5037227;28;20503;-75
2023/08/02 02:09:33;;;;;;;9.50;2.90;;;16.50;1.00;;;;;;5036650;28;20978;-76
2023/08/02 02:11:58;;;;;;;9.03;2.80;;;16.50;1.00;;;;;;5028539;28;20182;-76
2023/08/02 02:14:24;;;;;;;5.30;3.10;;;16.40;1.00;;;;;;5038792;28;20208;-74
2023/08/02 02:16:49;;;;;;;5.83;3.30;;;16.50;1.00;;;;;;5035813;28;20185;-74
2023/08/02 02:19:15;;;;;;;4.80;2.73;;;16.50;1.00;;;;;;5047109;28;20173;-73
2023/08/02 02:21:41;;;;;;;4.23;3.07;;;16.50;1.00;;;;;;5049976;28;20209;-74
2023/08/02 02:24:06;;;;;;;6.57;3.17;;;16.50;1.00;;;;;;5044119;28;20230;-74
2023/08/02 02:26:32;;;;;;;9.77;3.00;;;16.50;1.00;;;;;;5050042;28;20181;-75
2023/08/02 02:28:57;;;;;;;6.40;2.63;;;16.40;1.00;;;;;;5041540;28;20351;-75
2023/08/02 02:31:23;;;;;;;6.20;3.07;;;16.40;1.00;;;;;;5034022;28;20185;-73
2023/08/02 02:33:48;;;;;;;4.73;2.73;;;16.40;1.00;;;;;;5035272;28;20671;-75
2023/08/02 02:36:14;;;;;;;6.27;3.00;;;16.40;1.00;;;;;;5040918;28;20608;-75
2023/08/02 02:38:39;;;;;;;5.60;3.47;;;16.80;1.00;;;;;;5044089;28;20291;-75
2023/08/02 02:41:05;;;;;;;4.27;2.60;;;16.40;1.00;;;;;;5031986;28;20313;-75
2023/08/02 02:43:30;;;;;;;4.93;2.97;;;16.40;1.00;;;;;;5033775;28;20559;-75
2023/08/02 02:45:56;;;;;;;6.37;2.90;;;16.40;1.00;;;;;;5031741;28;20182;-75
2023/08/02 02:48:21;;;;;;;6.90;2.70;;;16.40;1.00;;;;;;5048545;28;20236;-75
2023/08/02 02:50:47;;;;;;;6.50;2.80;;;16.40;1.00;;;;;;5031824;28;20693;-75
2023/08/02 02:53:12;;;;;;;5.33;2.97;;;16.40;1.00;;;;;;5033755;28;20261;-76
2023/08/02 02:55:38;;;;;;;9.30;3.37;;;16.40;1.00;;;;;;5031968;28;20194;-75
2023/08/02 02:58:03;;;;;;;10.43;2.87;;;16.40;1.00;;;;;;5031428;28;20213;-75
2023/08/02 03:00:31;;;;;;;7.73;3.07;;;16.50;1.00;;;;;;5031823;28;20575;-75
2023/08/02 03:02:57;;;;;;;4.10;2.83;;;16.50;1.00;;;;;;5034347;28;20224;-76
2023/08/02 03:05:22;;;;;;;5.60;3.33;;;16.60;1.00;;;;;;5033343;28;20900;-72
2023/08/02 03:07:48;;;;;;;4.73;3.03;;;16.70;1.00;;;;;;5047436;28;20201;-74
2023/08/02 03:10:13;;;;;;;5.13;2.70;;;17.40;1.00;;;;;;5031620;28;20211;-75
2023/08/02 03:12:39;;;;;;;5.33;3.13;;;16.80;1.00;;;;;;5036265;28;20178;-76
2023/08/02 03:15:05;;;;;;;11.00;4.03;;;16.80;1.00;;;;;;5040440;28;20315;-74
2023/08/02 03:17:31;;;;;;;6.87;3.97;;;16.80;1.00;;;;;;5031169;28;20672;-75
2023/08/02 03:19:56;;;;;;;8.10;3.87;;;16.90;1.00;;;;;;5031633;28;20407;-74
2023/08/02 03:22:22;;;;;;;5.93;3.00;;;16.90;1.00;;;;;;5036628;28;20667;-75
2023/08/02 03:24:47;;;;;;;5.43;3.40;;;16.90;1.00;;;;;;5039179;28;20181;-76
2023/08/02 03:27:13;;;;;;;3.17;2.67;;;16.90;1.00;;;;;;5039574;28;20620;-75
2023/08/02 03:29:38;;;;;;;6.20;2.57;;;16.90;1.00;;;;;;5044666;28;20260;-74
2023/08/02 03:32:04;;;;;;;4.47;2.80;;;16.90;1.00;;;;;;5041208;28;20204;-74
2023/08/02 03:34:30;;;;;;;5.37;2.47;;;17.00;1.00;;;;;;5037012;28;20278;-74
2023/08/02 03:36:55;;;;;;;4.60;2.43;;;17.00;1.00;;;;;;5037108;28;20206;-73
2023/08/02 03:39:21;;;;;;;4.23;2.87;;;17.00;1.00;;;;;;5041694;28;20201;-76
2023/08/02 03:41:47;;;;;;;4.37;2.73;;;17.10;1.00;;;;;;5031134;28;20197;-74
2023/08/02 03:44:12;;;;;;;4.50;2.40;;;17.10;1.00;;;;;;5038667;28;20250;-75
2023/08/02 03:46:38;;;;;;;7.13;2.73;;;17.20;1.00;;;;;;5030862;28;20420;-75
2023/08/02 03:49:03;;;;;;;4.03;2.50;;;17.20;1.00;;;;;;5030600;28;20621;-74
2023/08/02 03:51:29;;;;;;;3.60;2.37;;;17.20;1.00;;;;;;5031115;28;20228;-74
2023/08/02 03:53:54;;;;;;;4.30;2.70;;;17.20;1.00;;;;;;5030522;28;20533;-75
2023/08/02 03:56:20;;;;;;;6.60;2.60;;;17.30;1.00;;;;;;5029257;28;20170;-75
2023/08/02 03:58:46;;;;;;;6.27;2.90;;;17.40;1.00;;;;;;5030795;28;20650;-74
2023/08/02 04:01:11;;;;;;;6.20;2.70;;;17.50;1.00;;;;;;5030036;28;20201;-75
2023/08/02 04:03:36;;;;;;;4.47;2.87;;;17.60;1.00;;;;;;5030673;28;20258;-75
2023/08/02 04:06:02;;;;;;;4.93;2.87;;;17.60;1.00;;;;;;5031516;28;20207;-75
2023/08/02 04:08:28;;;;;;;4.87;3.30;;;17.70;1.00;;;;;;5036797;28;20671;-74
2023/08/02 04:10:53;;;;;;;5.20;2.83;;;17.70;1.00;;;;;;5038523;28;20192;-74
2023/08/02 04:13:19;;;;;;;4.60;2.37;;;17.70;1.00;;;;;;5033179;28;20300;-75
2023/08/02 04:15:44;;;;;;;4.30;2.73;;;17.80;1.00;;;;;;5030400;28;20206;-76
2023/08/02 04:18:10;;;;;;;6.83;2.37;;;17.80;1.00;;;;;;5030095;28;20213;-73
2023/08/02 04:20:39;;;;;;;5.77;3.20;;;17.80;1.00;;;;;;5035796;28;20569;-75
2023/08/02 04:23:05;;;;;;;3.67;2.80;;;17.80;1.00;;;;;;5030233;28;20501;-75
2023/08/02 04:25:30;;;;;;;5.07;3.00;;;17.80;1.00;;;;;;5030465;28;20499;-75
2023/08/02 04:27:56;;;;;;;4.43;3.03;;;18.70;1.00;;;;;;5029649;28;20272;-76
2023/08/02 04:30:21;;;;;;;5.30;2.87;;;17.90;1.00;;;;;;5032725;28;20177;-75
2023/08/02 04:32:46;;;;;;;3.77;2.63;;;17.90;1.00;;;;;;5031250;28;20182;-74
2023/08/02 04:35:12;;;;;;;4.10;2.60;;;18.00;1.00;;;;;;5030981;28;20178;-75
2023/08/02 04:37:37;;;;;;;5.20;3.00;;;17.90;1.00;;;;;;5029533;28;20362;-74
2023/08/02 04:40:03;;;;;;;5.27;2.90;;;17.90;1.00;;;;;;5032329;28;20198;-75
2023/08/02 04:42:29;;;;;;;4.50;2.63;;;18.00;1.00;;;;;;5045421;28;20256;-75
2023/08/02 04:44:54;;;;;;;5.47;2.80;;;18.00;1.00;;;;;;5035596;28;20439;-77
2023/08/02 04:47:20;;;;;;;6.03;3.20;;;17.90;1.00;;;;;;5049168;28;20200;-75
2023/08/02 04:49:45;;;;;;;5.50;2.97;;;17.90;1.00;;;;;;5047986;28;20185;-74
2023/08/02 04:52:11;;;;;;;5.70;2.87;;;17.90;1.00;;;;;;5037916;28;20228;-74
2023/08/02 04:54:36;;;;;;;5.27;3.00;;;17.80;1.00;;;;;;5039451;28;20216;-75
2023/08/02 04:57:02;;;;;;;10.07;3.23;;;17.70;1.00;;;;;;5035847;28;20214;-76
2023/08/02 04:59:28;;;;;;;5.10;3.20;;;17.60;1.00;;;;;;5029911;28;20284;-75
2023/08/02 05:01:53;;;;;;;5.10;2.80;;;17.70;1.00;;;;;;5038637;28;20276;-74
2023/08/02 05:04:18;;;;;;;5.47;2.90;;;17.60;1.00;;;;;;5033128;28;20209;-75
2023/08/02 05:06:44;;;;;;;4.10;3.10;;;17.60;1.00;;;;;;5036397;28;20177;-74
2023/08/02 05:09:11;;;;;;;5.00;3.50;;;17.60;1.00;;;;;;5047181;28;20705;-73
2023/08/02 05:11:38;;;;;;;5.27;3.07;;;17.60;1.00;;;;;;5030143;28;20178;-75
2023/08/02 05:14:03;;;;;;;3.90;2.90;;;17.50;1.00;;;;;;5030793;28;20433;-74
2023/08/02 05:16:29;;;;;;;3.90;2.90;;;17.50;1.00;;;;;;5029690;28;20424;-75
2023/08/02 05:18:55;;;;;;;5.60;3.30;;;17.40;1.00;;;;;;5028510;28;20198;-74
2023/08/02 05:21:20;;;;;;;6.07;3.50;;;17.40;1.00;;;;;;5032093;28;20217;-74
2023/08/02 05:23:46;;;;;;;6.77;3.37;;;17.40;1.00;;;;;;5032007;28;20432;-75
2023/08/02 05:26:13;;;;;;;4.87;3.23;;;17.30;1.00;;;;;;5031334;28;20269;-77
2023/08/02 05:28:40;;;;;;;7.87;3.50;;;17.30;1.00;;;;;;5034801;28;20201;-75
2023/08/02 05:31:14;;;;;;;6.40;3.23;;;17.20;1.00;;;;;;5034456;28;20411;-73
2023/08/02 05:33:41;;;;;;;6.47;3.93;;;17.10;1.00;;;;;;5033267;28;20960;-77
2023/08/02 05:36:06;;;;;;;9.00;3.33;;;17.20;1.00;;;;;;5035560;28;20436;-75
2023/08/02 05:38:36;;;;;;;9.53;3.80;;;17.20;1.00;;;;;;5043524;28;20452;-77
2023/08/02 05:41:02;;;;;;;5.10;3.40;;;17.20;1.00;;;;;;5032856;28;20210;-72
2023/08/02 05:43:29;;;;;;;7.03;3.47;;;17.20;1.00;;;;;;5029968;28;20432;-76
2023/08/02 05:45:55;;;;;;;4.80;3.23;;;17.20;1.00;;;;;;5035686;28;20481;-75
2023/08/02 05:48:20;;;;;;;6.60;3.73;;;17.20;1.00;;;;;;5031047;28;20691;-74
2023/08/02 05:50:46;;;;;;;8.13;3.73;;;17.20;1.00;;;;;;5043746;28;20431;-74
2023/08/02 05:53:11;;;;;;;9.30;3.93;;;17.20;1.00;;;;;;5031642;28;20193;-74
2023/08/02 05:55:37;;;;;;;7.17;3.90;;;17.30;1.00;;;;;;5029945;28;20173;-76
2023/08/02 05:58:03;;;;;;;6.10;4.17;;;17.30;1.00;;;;;;5028151;28;20703;-74
2023/08/02 06:00:28;;;;;;;4.97;3.50;;;17.20;1.00;;;;;;5029420;28;20970;-74
2023/08/02 06:02:54;;;;;;;5.80;3.97;;;17.10;1.00;;;;;;5034977;28;20314;-76
2023/08/02 06:05:20;;;;;;;5.40;3.97;;;17.10;1.00;;;;;;5046135;28;20256;-75
2023/08/02 06:07:45;;;;;;;7.43;3.93;;;17.00;1.00;;;;;;5037889;28;20218;-75
2023/08/02 06:10:11;;;;;;;7.57;3.90;;;17.00;1.00;;;;;;5027618;28;20220;-75
2023/08/02 06:12:36;;;;;;;9.37;4.13;;;17.00;1.00;;;;;;5040005;28;20666;-75
2023/08/02 06:15:02;;;;;;;8.40;4.50;;;17.00;1.00;;;;;;5031155;28;20584;-76
2023/08/02 06:17:29;;;;;;;9.63;3.80;;;17.00;1.00;;;;;;5040314;28;20601;-74
2023/08/02 06:19:55;;;;;;;6.10;4.30;;;17.10;1.00;;;;;;5041497;28;20680;-75
2023/08/02 06:22:20;;;;;;;8.37;4.50;;;17.10;1.00;;;;;;5028484;28;20432;-74
2023/08/02 06:24:46;;;;;;;9.77;4.30;;;17.10;1.00;;;;;;5035478;28;20511;-75
2023/08/02 06:27:12;;;;;;;14.50;4.50;;;17.00;1.00;;;;;;5037505;28;20205;-72
2023/08/02 06:29:37;;;;;;;6.50;3.60;;;17.20;1.00;;;;;;5041067;28;20177;-72
2023/08/02 06:32:03;;;;;;;6.47;4.07;;;16.80;1.00;;;;;;5037752;28;20189;-72
2023/08/02 06:34:28;;;;;;;4.87;3.67;;;16.70;1.00;;;;;;5033854;28;20200;-73
2023/08/02 06:36:54;;;;;;;7.07;3.60;;;16.70;1.00;;;;;;5040604;28;20205;-72
2023/08/02 06:39:20;;;;;;;5.60;3.70;;;16.70;1.00;;;;;;5032323;28;20605;-72
2023/08/02 06:41:45;;;;;;;5.20;3.90;;;16.70;1.00;;;;;;5047580;28;20228;-73
2023/08/02 06:44:11;;;;;;;8.40;3.20;;;16.80;1.00;;;;;;5039291;28;20220;-71
2023/08/02 06:46:36;;;;;;;4.07;3.07;;;17.10;1.00;;;;;;5036031;28;20174;-72
2023/08/02 06:49:02;;;;;;;9.70;3.80;;;17.10;1.00;;;;;;5040728;28;20188;-73
2023/08/02 06:51:27;;;;;;;7.10;3.67;;;17.20;1.00;;;;;;5038990;28;20189;-73
2023/08/02 06:53:57;;;;;;;5.93;3.50;;;17.70;1.00;;;;;;5036983;28;20188;-72
2023/08/02 06:56:23;;;;;;;4.80;2.83;;;17.30;1.00;;;;;;5027493;28;20687;-74
2023/08/02 06:58:49;;;;;;;4.10;3.20;;;17.30;1.00;;;;;;5041672;28;20455;-72
2023/08/02 07:01:19;;;;;;;3.73;3.07;;;17.40;1.00;;;;;;5035798;28;20290;-74
2023/08/02 07:03:46;;;;;;;4.33;3.40;;;17.40;1.00;;;;;;5036708;28;20327;-72
2023/08/02 07:06:16;;;;;;;7.50;3.50;;;17.50;1.00;;;;;;5041996;28;20420;-72
2023/08/02 07:08:43;;;;;;;4.10;2.80;;;17.50;1.00;;;;;;5041788;28;20933;-72
2023/08/02 07:11:08;;;;;;;3.70;3.20;;;17.50;1.00;;;;;;5038561;28;20439;-74
2023/08/02 07:13:36;;;;;;;4.00;2.57;;;17.70;1.00;;;;;;5032178;28;20428;-73
2023/08/02 07:16:02;;;;;;;3.73;3.00;;;17.80;1.00;;;;;;5043782;28;20176;-73
2023/08/02 07:18:28;;;;;;;5.70;3.40;;;17.80;1.00;;;;;;5036023;28;20487;-77
2023/08/02 07:20:54;;;;;;;6.93;3.30;;;17.90;1.00;;;;;;5035185;28;20492;-72
2023/08/02 07:23:20;;;;;;;5.70;3.10;;;17.90;1.00;;;;;;5038095;28;20565;-73
2023/08/02 07:25:45;;;;;;;6.03;3.37;;;18.00;1.00;;;;;;5035395;28;20169;-73
2023/08/02 07:28:11;;;;;;;7.60;2.90;;;18.00;1.00;;;;;;5039461;28;20471;-73
2023/08/02 07:30:36;;;;;;;5.27;3.17;;;18.00;1.00;;;;;;5039533;28;20203;-73
2023/08/02 07:33:02;;;;;;;5.20;3.10;;;18.00;1.00;;;;;;5037871;28;20188;-73
2023/08/02 07:35:27;;;;;;;4.47;2.87;;;18.00;1.00;;;;;;5035760;28;20189;-74
2023/08/02 07:37:53;;;;;;;6.20;3.27;;;18.00;1.00;;;;;;5040561;28;20198;-74
2023/08/02 07:40:18;;;;;;;3.77;3.20;;;17.90;1.00;;;;;;5042915;28;20219;-73
2023/08/02 07:42:44;;;;;;;4.13;3.00;;;17.90;1.00;;;;;;5051161;28;20177;-73
2023/08/02 07:45:10;;;;;;;4.33;3.10;;;17.90;1.00;;;;;;5035549;28;20647;-73
2023/08/02 07:47:37;;;;;;;8.20;3.10;;;17.90;1.00;;;;;;5040170;28;20197;-73
2023/08/02 07:50:04;;;;;;;3.50;2.60;;;17.90;1.00;;;;;;5031957;28;20404;-73
2023/08/02 07:52:30;;;;;;;6.23;3.50;;;17.70;1.00;;;;;;5042324;28;20495;-72
2023/08/02 07:54:56;;;;;;;3.60;3.00;;;17.60;1.00;;;;;;5056401;28;20493;-73
2023/08/02 07:57:27;;;;;;;7.33;4.00;;;17.80;1.00;;;;;;5031838;28;20193;-72
2023/08/02 07:59:52;;;;;;;4.97;3.50;;;17.90;1.00;;;;;;5037861;28;20166;-75
2023/08/02 08:02:19;;;;;;;4.50;3.63;;;18.00;1.00;;;;;;5049905;28;20510;-70
2023/08/02 08:04:45;;;;;;;6.10;3.60;;;18.00;1.00;;;;;;5047257;28;20173;-75
2023/08/02 08:07:10;;;;;;;6.80;3.50;;;18.10;1.00;;;;;;5038125;28;20465;-73
2023/08/02 08:09:36;;;;;;;4.50;3.47;;;18.10;1.00;;;;;;5038774;28;20269;-72
2023/08/02 08:12:03;;;;;;;5.90;3.80;;;18.10;1.00;;;;;;5036235;28;20174;-75
2023/08/02 08:14:29;;;;;;;3.90;3.10;;;18.10;1.00;;;;;;5038368;28;20174;-77
2023/08/02 08:16:56;;;;;;;6.63;3.53;;;17.90;1.00;;;;;;5037984;28;20436;-77
2023/08/02 08:19:22;;;;;;;5.90;3.70;;;17.80;1.00;;;;;;5039987;28;20208;-75
2023/08/02 08:21:47;;;;;;;8.50;3.77;;;17.80;1.00;;;;;;5035867;28;20906;-75
2023/08/02 08:24:13;;;;;;;6.40;3.70;;;17.80;1.00;;;;;;5038645;28;20200;-76
2023/08/02 08:26:39;;;;;;;5.00;3.87;;;17.90;1.00;;;;;;5044410;28;20198;-75
2023/08/02 08:29:04;;;;;;;5.37;3.83;;;17.90;1.00;;;;;;5039858;28;20169;-74
2023/08/02 08:31:30;;;;;;;10.63;3.03;;;17.90;1.00;;;;;;5041383;28;20288;-75
2023/08/02 08:33:55;;;;;;;7.40;3.27;;;17.90;1.00;;;;;;5043832;28;20177;-75
2023/08/02 08:36:21;;;;;;;5.53;3.23;;;17.80;1.00;;;;;;5035233;28;20185;-74
2023/08/02 08:38:46;;;;;;;7.23;3.70;;;17.90;1.00;;;;;;5035173;28;20213;-74
2023/08/02 08:41:15;;;;;;;5.80;3.30;;;17.80;1.00;;;;;;5038470;28;20194;-73
2023/08/02 08:43:41;;;;;;;8.67;3.67;;;17.80;1.00;;;;;;5035116;28;20185;-74
2023/08/02 08:46:07;;;;;;;4.73;3.60;;;17.80;1.00;;;;;;5035861;28;20429;-74
2023/08/02 08:48:36;;;;;;;4.50;3.30;;;17.80;1.00;;;;;;5043706;28;20255;-73
2023/08/02 08:51:02;;;;;;;4.03;3.33;;;17.80;1.00;;;;;;5036691;28;20746;-77
2023/08/02 08:53:34;;;;;;;8.47;3.63;;;17.80;1.00;;;;;;5036120;28;20948;-76
2023/08/02 08:56:01;;;;;;;5.93;3.87;;;17.80;1.00;;;;;;5037549;28;20425;-73
2023/08/02 08:58:27;;;;;;;5.27;3.20;;;17.80;1.00;;;;;;5035356;28;20455;-74
2023/08/02 09:00:54;;;;;;;6.73;3.90;;;17.90;1.00;;;;;;5034882;28;20966;-71
2023/08/02 09:03:20;;;;;;;6.53;3.60;;;17.90;1.00;;;;;;5039245;28;20603;-72
2023/08/02 09:05:46;;;;;;;6.10;3.73;;;17.90;1.00;;;;;;5035184;28;20570;-74
2023/08/02 09:08:12;;;;;;;8.23;3.53;;;17.80;1.00;;;;;;5044041;28;20594;-72
2023/08/02 09:10:39;;;;;;;7.77;4.00;;;17.80;1.00;;;;;;5038759;28;20428;-73
2023/08/02 09:13:04;;;;;;;5.63;3.70;;;17.70;1.00;;;;;;5037527;28;20234;-72
2023/08/02 09:15:30;;;;;;;7.90;3.80;;;17.70;1.00;;;;;;5041311;28;20576;-73
2023/08/02 09:17:55;;;;;;;5.53;3.60;;;17.80;1.00;;;;;;5034938;28;20213;-78
2023/08/02 09:20:23;;;;;;;6.87;3.40;;;17.90;1.00;;;;;;5032535;28;20201;-74
2023/08/02 09:22:48;;;;;;;5.60;3.30;;;19.00;1.00;;;;;;5028671;28;20184;-73
2023/08/02 09:25:25;;;;;;;5.97;3.30;;;18.10;1.00;;;;;;5032427;28;20499;-75
2023/08/02 09:27:52;;;;;;;5.00;3.90;;;18.10;1.00;;;;;;5022495;28;20194;-72
2023/08/02 09:30:36;;;;;;;50.53;33.60;;;18.10;1.00;;;;;;5037521;28;20432;-74
2023/08/02 09:33:08;;;;;;;18.50;10.87;;;18.20;1.00;;;;;;5036577;28;20439;-73
2023/08/02 09:35:47;;;;;;;13.70;5.90;;;18.40;1.00;;;;;;5036089;28;20936;-73
2023/08/02 09:38:14;;;;;;;19.43;10.40;;;18.50;1.00;;;;;;5028939;28;20513;-72
2023/08/02 09:40:42;;;;;;;9.77;5.00;;;18.50;1.00;;;;;;5029528;28;20475;-80
2023/08/02 09:43:10;;;;;;;8.60;5.03;;;18.50;1.00;;;;;;5040027;28;20438;-73
2023/08/02 09:45:36;;;;;;;8.07;4.50;;;18.50;1.00;;;;;;5034778;28;20456;-73
2023/08/02 09:48:02;;;;;;;4.63;3.63;;;18.50;1.00;;;;;;5037286;28;20503;-78
2023/08/02 09:50:28;;;;;;;7.43;4.20;;;18.60;1.00;;;;;;5042660;28;20188;-73
2023/08/02 09:52:54;;;;;;;5.70;3.60;;;18.60;1.00;;;;;;5035105;28;20497;-72
2023/08/02 09:55:20;;;;;;;5.63;3.70;;;18.70;1.00;;;;;;5034264;28;20469;-76
2023/08/02 09:57:47;;;;;;;5.43;3.30;;;18.80;1.00;;;;;;5027684;28;21088;-74
2023/08/02 10:00:14;;;;;;;5.20;3.43;;;18.70;1.00;;;;;;5038837;28;20169;-72
2023/08/02 10:02:40;;;;;;;4.47;3.40;;;18.80;1.00;;;;;;5044345;28;20455;-76
2023/08/02 10:05:09;;;;;;;7.37;3.93;;;18.70;1.00;;;;;;5030850;28;20489;-75
2023/08/02 10:07:41;;;;;;;5.93;3.63;;;18.70;1.00;;;;;;5032547;28;20958;-76
2023/08/02 10:10:25;;;;;;;4.80;3.37;;;18.80;1.00;;;;;;5032790;28;20427;-73
2023/08/02 10:12:55;;;;;;;5.53;3.30;;;18.90;1.00;;;;;;5032638;28;20448;-74
2023/08/02 10:15:22;;;;;;;4.93;3.37;;;19.00;1.00;;;;;;5035962;28;20495;-73
2023/08/02 10:17:48;;;;;;;5.37;3.40;;;18.90;1.00;;;;;;5029365;28;20511;-72
2023/08/02 10:20:14;;;;;;;5.30;3.27;;;19.00;1.00;;;;;;5042246;28;20427;-73
2023/08/02 10:22:44;;;;;;;6.03;3.90;;;19.00;1.00;;;;;;5029123;28;20459;-72
2023/08/02 10:25:11;;;;;;;5.57;3.77;;;19.70;1.00;;;;;;5028994;28;20495;-72
2023/08/02 10:27:37;;;;;;;7.17;3.70;;;19.10;1.00;;;;;;5036480;28;20443;-72
2023/08/02 10:30:04;;;;;;;4.93;3.40;;;19.10;1.00;;;;;;5033323;28;20473;-75
2023/08/02 10:32:29;;;;;;;6.40;3.60;;;19.10;1.00;;;;;;5036642;28;20435;-72
2023/08/02 10:34:56;;;;;;;5.67;3.60;;;19.10;1.00;;;;;;5035482;28;20407;-76
2023/08/02 10:37:22;;;;;;;4.67;3.27;;;19.00;1.00;;;;;;5041589;28;20223;-73
2023/08/02 10:39:48;;;;;;;7.53;3.50;;;19.00;1.00;;;;;;5043597;28;21399;-73
2023/08/02 10:42:18;;;;;;;5.60;3.63;;;19.00;1.00;;;;;;5037675;28;20463;-75
2023/08/02 10:44:56;;;;;;;9.03;4.03;;;19.10;1.00;;;;;;5036336;28;20560;-76
2023/08/02 10:47:26;;;;;;;5.10;3.40;;;19.20;1.00;;;;;;5033158;28;20534;-75
2023/08/02 10:49:52;;;;;;;6.40;4.17;;;19.20;1.00;;;;;;5037584;28;20755;-75
2023/08/02 10:52:42;;;;;;;6.23;3.97;;;19.10;1.00;;;;;;5038470;28;20918;-74
2023/08/02 10:55:18;;;;;;;15.07;4.40;;;19.10;1.00;;;;;;5039234;28;20531;-75
2023/08/02 10:57:56;;;;;;;5.30;3.77;;;19.20;1.00;;;;;;5036117;28;20447;-74
2023/08/02 11:00:24;;;;;;;6.47;4.20;;;19.20;1.00;;;;;;5031128;28;20462;-74
2023/08/02 11:02:51;;;;;;;5.33;3.67;;;19.40;1.00;;;;;;5038987;28;20432;-75
2023/08/02 11:05:37;;;;;;;6.40;3.70;;;19.10;1.00;;;;;;5041277;28;20423;-74
2023/08/02 11:08:03;;;;;;;5.53;3.60;;;19.10;1.00;;;;;;5035119;28;20559;-74
2023/08/02 11:10:29;;;;;;;8.33;3.70;;;19.20;1.00;;;;;;5040453;28;20419;-75
2023/08/02 11:12:55;;;;;;;4.60;3.57;;;19.30;1.00;;;;;;5044136;28;20178;-73
2023/08/02 11:15:21;;;;;;;6.73;4.33;;;19.30;1.00;;;;;;5047147;28;20524;-75
2023/08/02 11:17:56;;;;;;;5.43;3.87;;;19.30;1.00;;;;;;5037013;28;20983;-75
2023/08/02 11:20:28;;;;;;;5.97;4.30;;;19.40;1.00;;;;;;5038340;28;20510;-72
2023/08/02 11:22:54;;;;;;;9.60;4.53;;;19.30;1.00;;;;;;5039941;28;20463;-72
2023/08/02 11:25:20;;;;;;;7.13;4.77;;;19.20;1.00;;;;;;5039839;28;20518;-72
2023/08/02 11:27:46;;;;;;;6.00;4.43;;;19.20;1.00;;;;;;5038417;28;21007;-72
2023/08/02 11:30:11;;;;;;;6.97;4.53;;;19.20;1.00;;;;;;5042459;28;20467;-73
2023/08/02 11:32:44;;;;;;;11.20;4.90;;;19.20;1.00;;;;;;5048536;28;20243;-71
2023/08/02 11:35:20;;;;;;;7.90;5.17;;;19.20;1.00;;;;;;5043779;28;20181;-72
2023/08/02 11:37:46;;;;;;;8.07;5.00;;;19.10;1.00;;;;;;5035752;28;20467;-72
2023/08/02 11:40:13;;;;;;;9.60;5.63;;;19.20;1.00;;;;;;5041185;28;20764;-72
2023/08/02 11:42:47;;;;;;;7.77;4.83;;;19.20;1.00;;;;;;5032892;28;20448;-72
2023/08/02 11:45:12;;;;;;;7.67;5.10;;;19.20;1.00;;;;;;5038488;28;20988;-73
2023/08/02 11:47:38;;;;;;;16.97;5.80;;;19.20;1.00;;;;;;5033195;28;20551;-72
2023/08/02 11:50:04;;;;;;;9.00;5.83;;;19.80;1.00;;;;;;5039978;28;20189;-72
2023/08/02 11:52:32;;;;;;;10.50;5.83;;;19.30;1.00;;;;;;5040777;28;20188;-73
2023/08/02 11:54:58;;;;;;;8.10;5.27;;;19.30;1.00;;;;;;5033805;28;20182;-74
2023/08/02 11:57:25;;;;;;;12.13;5.50;;;19.50;1.00;;;;;;5037945;28;21017;-72
2023/08/02 11:59:53;;;;;;;8.53;5.50;;;19.60;1.00;;;;;;5042998;28;20459;-74
2023/08/02 12:02:26;;;;;;;11.73;5.33;;;19.60;1.00;;;;;;5041155;28;20946;-75
2023/08/02 12:04:51;;;;;;;7.50;5.50;;;19.70;1.00;;;;;;5047504;28;20461;-73
2023/08/02 12:07:28;;;;;;;9.40;5.93;;;19.70;1.00;;;;;;5036332;28;20451;-74
2023/08/02 12:09:54;;;;;;;9.43;5.83;;;19.80;1.00;;;;;;5035698;28;20189;-72
2023/08/02 12:12:20;;;;;;;12.13;5.83;;;19.80;1.00;;;;;;5039573;28;20490;-73
2023/08/02 12:14:46;;;;;;;14.13;5.83;;;19.70;1.00;;;;;;5030796;28;20649;-76
2023/08/02 12:17:22;;;;;;;7.60;5.87;;;19.70;1.00;;;;;;5043740;28;20209;-73
2023/08/02 12:19:48;;;;;;;8.60;6.00;;;19.80;1.00;;;;;;5043591;28;20181;-74
2023/08/02 12:22:15;;;;;;;9.77;6.57;;;19.90;1.00;;;;;;5037812;28;20826;-74
2023/08/02 12:24:41;;;;;;;8.80;6.23;;;19.80;1.00;;;;;;5035142;28;20448;-74
2023/08/02 12:27:20;;;;;;;10.20;6.93;;;19.90;1.00;;;;;;5038015;28;20507;-76
2023/08/02 12:29:46;;;;;;;10.53;6.00;;;19.90;1.00;;;;;;5042208;28;20427;-74
2023/08/02 12:32:25;;;;;;;8.10;5.47;;;20.00;1.00;;;;;;5040959;28;20440;-73
2023/08/02 12:34:51;;;;;;;9.83;6.20;;;19.90;1.00;;;;;;5041702;28;20514;-74
2023/08/02 12:37:17;;;;;;;8.70;6.20;;;19.90;1.00;;;;;;5033793;28;20520;-75
2023/08/02 12:39:43;;;;;;;10.77;6.23;;;20.00;1.00;;;;;;5031835;28;20209;-77
2023/08/02 12:42:08;;;;;;;7.40;5.70;;;20.50;1.00;;;;;;5044490;28;20225;-74
2023/08/02 12:44:34;;;;;;;8.50;6.00;;;20.20;1.00;;;;;;5034497;28;20268;-75
2023/08/02 12:46:59;;;;;;;10.13;6.33;;;20.20;1.00;;;;;;5039567;28;20206;-75
2023/08/02 12:49:25;;;;;;;8.83;5.80;;;20.20;1.00;;;;;;5036227;28;20234;-77
2023/08/02 12:51:50;;;;;;;9.43;6.00;;;20.20;1.00;;;;;;5043659;28;20250;-74
2023/08/02 12:54:16;;;;;;;12.63;6.40;;;20.10;1.00;;;;;;5037138;28;20210;-74
2023/08/02 12:56:41;;;;;;;14.87;6.37;;;20.10;1.00;;;;;;5028127;28;20220;-75
2023/08/02 12:59:07;;;;;;;9.40;6.20;;;20.10;1.00;;;;;;5031772;28;20181;-74
2023/08/02 13:01:32;;;;;;;15.13;7.20;;;20.10;1.00;;;;;;5039811;28;20202;-74
2023/08/02 13:03:58;;;;;;;14.43;6.80;;;20.10;1.00;;;;;;5037762;28;20182;-76
2023/08/02 13:06:23;;;;;;;11.50;5.80;;;20.20;1.00;;;;;;5044235;28;20577;-77
2023/08/02 13:08:49;;;;;;;12.20;6.77;;;20.20;1.00;;;;;;5027644;28;20288;-74
2023/08/02 13:11:15;;;;;;;13.43;6.90;;;20.80;1.00;;;;;;5037768;28;20188;-74
2023/08/02 13:13:40;;;;;;;9.27;5.90;;;21.20;1.00;;;;;;5036666;28;20203;-75